createdAt,value
2022-12-12T00:00:02.130Z,88.16
2022-12-12T00:02:28.542Z,88.25
2022-12-12T00:04:58.146Z,87.92
2022-12-12T00:07:24.437Z,88.02
2022-12-12T00:09:50.907Z,88.13
2022-12-12T00:12:17.231Z,87.94
2022-12-12T00:14:43.541Z,88.09
2022-12-12T00:17:13.496Z,88.26
2022-12-12T00:19:40.376Z,88.15
2022-12-12T00:22:06.673Z,88.23
2022-12-12T00:24:33.027Z,88.19
2022-12-12T00:26:59.451Z,88.07
2022-12-12T00:29:25.792Z,88.08
2022-12-12T00:31:52.093Z,88.41
2022-12-12T00:34:18.441Z,88.12
2022-12-12T00:36:44.755Z,88.17
2022-12-12T00:39:16.668Z,88.30
2022-12-12T00:41:44.771Z,88.19
2022-12-12T00:44:11.554Z,88.28
2022-12-12T00:46:38.213Z,88.39
2022-12-12T00:49:04.889Z,88.46
2022-12-12T00:51:31.457Z,88.59
2022-12-12T00:53:59.532Z,88.46
2022-12-12T00:56:28.737Z,88.69
2022-12-12T00:58:55.122Z,88.18
2022-12-12T01:01:28.184Z,88.06
2022-12-12T01:03:54.781Z,88.18
2022-12-12T01:06:22.167Z,88.21
2022-12-12T01:08:48.762Z,88.23
2022-12-12T01:11:16.032Z,88.26
2022-12-12T01:13:43.270Z,88.05
2022-12-12T01:16:10.152Z,87.95
2022-12-12T01:18:37.171Z,88.07
2022-12-12T01:21:07.171Z,88.03
2022-12-12T01:23:33.483Z,87.95
2022-12-12T01:26:27.133Z,88.08
2022-12-12T01:28:54.147Z,87.94
2022-12-12T01:31:21.173Z,87.89
2022-12-12T01:33:47.681Z,87.98
2022-12-12T01:36:16.653Z,88.15
2022-12-12T01:38:47.462Z,87.95
2022-12-12T01:41:14.908Z,88.23
2022-12-12T01:43:41.309Z,88.00
2022-12-12T01:46:29.422Z,88.05
2022-12-12T01:49:13.768Z,87.90
2022-12-12T01:51:42.154Z,87.90
2022-12-12T01:54:21.887Z,87.78
2022-12-12T01:56:49.862Z,87.92
2022-12-12T01:59:19.057Z,87.93
2022-12-12T02:01:45.888Z,88.09
2022-12-12T02:04:13.268Z,88.11
2022-12-12T02:06:40.853Z,88.27
2022-12-12T02:09:12.302Z,88.31
2022-12-12T02:11:45.037Z,88.30
2022-12-12T02:14:14.071Z,88.30
2022-12-12T02:17:04.800Z,88.26
2022-12-12T02:19:40.329Z,88.14
2022-12-12T02:22:59.678Z,88.18
2022-12-12T02:26:22.399Z,88.28
2022-12-12T02:29:11.969Z,88.12
2022-12-12T02:32:02.809Z,88.19
2022-12-12T02:34:49.166Z,88.39
2022-12-12T02:37:41.032Z,88.06
2022-12-12T02:40:22.315Z,88.28
2022-12-12T02:42:56.110Z,88.24
2022-12-12T02:45:43.493Z,88.26
2022-12-12T02:48:19.449Z,88.27
2022-12-12T02:50:51.370Z,88.42
2022-12-12T02:53:19.858Z,88.31
2022-12-12T02:55:46.373Z,88.46
2022-12-12T02:58:13.772Z,88.42
2022-12-12T03:01:11.250Z,88.43
2022-12-12T03:04:05.122Z,88.43
2022-12-12T03:07:08.910Z,88.19
2022-12-12T03:09:53.751Z,88.42
2022-12-12T03:12:31.781Z,88.30
2022-12-12T03:15:09.085Z,88.22
2022-12-12T03:18:07.376Z,88.37
2022-12-12T03:20:45.052Z,88.29
2022-12-12T03:23:18.373Z,88.46
2022-12-12T03:25:54.189Z,88.31
2022-12-12T03:28:29.148Z,88.40
2022-12-12T03:30:59.017Z,88.38
2022-12-12T03:33:34.465Z,88.40
2022-12-12T03:36:14.474Z,88.30
2022-12-12T03:38:57.127Z,88.26
2022-12-12T03:41:30.509Z,88.32
2022-12-12T03:44:11.223Z,88.40
2022-12-12T03:47:07.231Z,88.35
2022-12-12T03:49:35.037Z,88.39
2022-12-12T03:52:10.154Z,88.51
2022-12-12T03:54:58.237Z,88.52
2022-12-12T03:57:37.751Z,88.56
2022-12-12T04:00:06.628Z,88.69
2022-12-12T04:02:41.259Z,88.69
2022-12-12T04:05:14.638Z,88.87
2022-12-12T04:07:45.499Z,88.65
2022-12-12T04:10:31.186Z,88.89
2022-12-12T04:13:15.710Z,88.80
2022-12-12T04:15:48.319Z,88.78
2022-12-12T04:18:14.743Z,88.95
2022-12-12T04:21:25.364Z,89.01
2022-12-12T04:24:02.007Z,88.97
2022-12-12T04:26:40.709Z,89.23
2022-12-12T04:29:15.949Z,89.22
2022-12-12T04:31:55.194Z,89.25
2022-12-12T04:34:36.007Z,89.33
2022-12-12T04:37:04.891Z,89.49
2022-12-12T04:39:33.038Z,89.45
2022-12-12T04:42:01.810Z,89.50
2022-12-12T04:44:32.456Z,89.71
2022-12-12T04:47:02.303Z,89.54
2022-12-12T04:49:32.011Z,89.59
2022-12-12T04:52:05.322Z,89.54
2022-12-12T04:55:07.067Z,89.69
2022-12-12T04:57:39.752Z,89.95
2022-12-12T05:00:08.742Z,89.71
2022-12-12T05:02:46.287Z,89.84
2022-12-12T05:05:18.740Z,89.82
2022-12-12T05:07:53.357Z,89.99
2022-12-12T05:10:20.194Z,89.84
2022-12-12T05:12:56.594Z,89.92
2022-12-12T05:15:23.740Z,90.05
2022-12-12T05:18:11.289Z,89.95
2022-12-12T05:20:38.600Z,90.26
2022-12-12T05:23:05.255Z,90.19
2022-12-12T05:25:31.713Z,89.83
2022-12-12T05:27:58.094Z,89.98
2022-12-12T05:30:24.611Z,89.85
2022-12-12T05:32:51.533Z,89.91
2022-12-12T05:35:18.390Z,90.23
2022-12-12T05:37:49.922Z,90.10
2022-12-12T05:40:19.657Z,90.19
2022-12-12T05:42:45.988Z,90.45
2022-12-12T05:45:12.752Z,90.39
2022-12-12T05:47:39.437Z,90.45
2022-12-12T05:50:06.714Z,90.51
2022-12-12T05:52:33.237Z,90.49
2022-12-12T05:54:59.558Z,90.34
2022-12-12T05:57:25.863Z,90.43
2022-12-12T05:59:52.211Z,90.43
2022-12-12T06:02:18.610Z,90.29
2022-12-12T06:04:45.280Z,90.22
2022-12-12T06:07:11.695Z,90.12
2022-12-12T06:09:38.093Z,90.08
2022-12-12T06:12:04.655Z,89.92
2022-12-12T06:14:31.069Z,90.26
2022-12-12T06:16:57.454Z,90.16
2022-12-12T06:19:23.799Z,90.03
2022-12-12T06:21:50.167Z,90.12
2022-12-12T06:24:16.515Z,90.20
2022-12-12T06:26:42.887Z,90.19
2022-12-12T06:29:09.314Z,90.18
2022-12-12T06:31:35.713Z,90.05
2022-12-12T06:34:02.106Z,90.22
2022-12-12T06:36:28.547Z,90.14
2022-12-12T06:38:58.410Z,90.26
2022-12-12T06:41:27.366Z,90.06
2022-12-12T06:43:53.924Z,89.91
2022-12-12T06:46:23.386Z,89.68
2022-12-12T06:48:50.390Z,89.78
2022-12-12T06:51:20.227Z,89.92
2022-12-12T06:53:47.339Z,89.96
2022-12-12T06:56:16.560Z,89.86
2022-12-12T06:58:43.355Z,89.96
2022-12-12T07:01:12.090Z,89.82
2022-12-12T07:03:39.078Z,89.82
2022-12-12T07:06:06.587Z,89.87
2022-12-12T07:08:34.203Z,90.09
2022-12-12T07:11:11.526Z,90.00
2022-12-12T07:13:38.135Z,89.99
2022-12-12T07:16:05.538Z,89.87
2022-12-12T07:18:32.675Z,89.71
2022-12-12T07:20:59.341Z,89.73
2022-12-12T07:23:25.668Z,89.73
2022-12-12T07:25:51.968Z,89.64
2022-12-12T07:28:18.433Z,89.53
2022-12-12T07:30:47.142Z,89.53
2022-12-12T07:33:16.529Z,89.58
2022-12-12T07:35:43.726Z,89.72
2022-12-12T07:38:11.528Z,89.81
2022-12-12T07:40:39.144Z,89.90
2022-12-12T07:43:05.620Z,89.90
2022-12-12T07:45:32.103Z,89.82
2022-12-12T07:47:58.543Z,89.66
2022-12-12T07:50:25.054Z,89.62
2022-12-12T07:52:55.617Z,89.86
2022-12-12T07:55:22.189Z,89.95
2022-12-12T07:57:48.980Z,90.05
2022-12-12T08:00:15.959Z,90.12
2022-12-12T08:02:42.262Z,90.25
2022-12-12T08:05:09.028Z,90.29
2022-12-12T08:07:35.555Z,90.10
2022-12-12T08:10:02.078Z,90.00
2022-12-12T08:12:30.013Z,90.14
2022-12-12T08:14:56.513Z,90.09
2022-12-12T08:17:22.880Z,90.22
2022-12-12T08:19:49.341Z,90.34
2022-12-12T08:22:15.683Z,90.08
2022-12-12T08:24:42.181Z,90.29
2022-12-12T08:27:15.169Z,89.92
2022-12-12T08:29:42.335Z,89.73
2022-12-12T08:32:13.410Z,89.51
2022-12-12T08:34:40.044Z,88.46
2022-12-12T08:37:06.372Z,87.79
2022-12-12T08:39:33.161Z,87.78
2022-12-12T08:42:03.516Z,87.25
2022-12-12T08:44:32.009Z,86.96
2022-12-12T08:46:58.813Z,86.33
2022-12-12T08:49:25.278Z,86.15
2022-12-12T08:51:51.637Z,86.07
2022-12-12T08:54:18.383Z,86.00
2022-12-12T08:56:44.923Z,85.92
2022-12-12T08:59:11.379Z,85.54
2022-12-12T09:01:37.910Z,85.52
2022-12-12T09:04:04.404Z,85.06
2022-12-12T09:06:30.844Z,84.98
2022-12-12T09:08:57.605Z,84.49
2022-12-12T09:11:24.677Z,83.86
2022-12-12T09:13:51.226Z,83.30
2022-12-12T09:16:19.306Z,83.36
2022-12-12T09:18:49.109Z,82.96
2022-12-12T09:21:16.753Z,82.89
2022-12-12T09:23:43.145Z,82.61
2022-12-12T09:26:10.234Z,83.16
2022-12-12T09:28:37.447Z,82.92
2022-12-12T09:31:09.432Z,82.75
2022-12-12T09:33:36.889Z,82.78
2022-12-12T09:36:09.611Z,82.68
2022-12-12T09:38:39.927Z,82.59
2022-12-12T09:41:09.509Z,82.53
2022-12-12T09:43:46.103Z,82.17
2022-12-12T09:46:40.324Z,82.80
2022-12-12T09:49:38.428Z,83.11
2022-12-12T09:52:12.885Z,83.30
2022-12-12T09:54:39.286Z,83.42
2022-12-12T09:57:53.915Z,83.64
2022-12-12T10:00:20.584Z,83.82
2022-12-12T10:03:24.925Z,84.23
2022-12-12T10:06:28.675Z,84.50
2022-12-12T10:09:27.085Z,84.38
2022-12-12T10:11:55.135Z,84.68
2022-12-12T10:14:37.065Z,84.63
2022-12-12T10:17:08.346Z,84.85
2022-12-12T10:19:46.206Z,84.96
2022-12-12T10:22:24.906Z,85.26
2022-12-12T10:25:20.402Z,85.22
2022-12-12T10:27:50.313Z,84.96
2022-12-12T10:30:19.601Z,85.03
2022-12-12T10:33:00.049Z,84.84
2022-12-12T10:35:38.762Z,84.91
2022-12-12T10:38:53.829Z,85.03
2022-12-12T10:41:29.684Z,84.17
2022-12-12T10:44:12.043Z,83.58
2022-12-12T10:46:48.721Z,83.55
2022-12-12T10:49:17.592Z,82.71
2022-12-12T10:51:46.634Z,82.54
2022-12-12T10:54:19.542Z,83.12
2022-12-12T10:57:34.891Z,83.79
2022-12-12T11:00:17.348Z,84.25
2022-12-12T11:02:45.036Z,84.88
2022-12-12T11:05:23.006Z,84.86
2022-12-12T11:08:00.379Z,84.62
2022-12-12T11:10:35.269Z,84.94
2022-12-12T11:13:22.145Z,84.79
2022-12-12T11:16:05.057Z,85.48
2022-12-12T11:18:34.246Z,85.23
2022-12-12T11:21:08.573Z,85.57
2022-12-12T11:23:39.114Z,85.30
2022-12-12T11:26:18.779Z,85.22
2022-12-12T11:28:59.364Z,85.32
2022-12-12T11:31:29.932Z,85.17
2022-12-12T11:34:00.822Z,85.18
2022-12-12T11:36:40.443Z,85.08
2022-12-12T11:39:16.834Z,84.62
2022-12-12T11:42:04.169Z,85.04
2022-12-12T11:44:38.190Z,84.74
2022-12-12T11:47:19.819Z,84.59
2022-12-12T11:49:48.355Z,84.59
2022-12-12T11:52:26.414Z,84.37
2022-12-12T11:54:54.604Z,84.40
2022-12-12T11:57:27.121Z,84.48
2022-12-12T12:00:11.621Z,84.32
2022-12-12T12:03:14.744Z,84.16
2022-12-12T12:05:47.014Z,84.06
2022-12-12T12:08:30.029Z,84.10
2022-12-12T12:11:10.215Z,83.78
2022-12-12T12:13:57.799Z,84.06
2022-12-12T12:16:38.129Z,83.71
2022-12-12T12:19:14.337Z,83.46
2022-12-12T12:21:59.677Z,83.33
2022-12-12T12:24:39.509Z,83.21
2022-12-12T12:27:34.019Z,82.74
2022-12-12T12:30:20.254Z,82.86
2022-12-12T12:33:02.587Z,82.01
2022-12-12T12:35:40.271Z,81.96
2022-12-12T12:38:27.227Z,81.76
2022-12-12T12:41:41.938Z,81.98
2022-12-12T12:44:31.650Z,81.61
2022-12-12T12:47:16.159Z,81.13
2022-12-12T12:49:57.707Z,81.53
2022-12-12T12:52:54.584Z,81.35
2022-12-12T12:55:26.670Z,81.47
2022-12-12T12:57:53.370Z,81.09
2022-12-12T13:00:23.692Z,80.84
2022-12-12T13:03:08.908Z,80.73
2022-12-12T13:05:42.413Z,80.34
2022-12-12T13:08:14.444Z,80.56
2022-12-12T13:10:54.067Z,80.02
2022-12-12T13:13:31.246Z,80.83
2022-12-12T13:16:18.466Z,80.71
2022-12-12T13:18:50.406Z,80.62
2022-12-12T13:21:41.151Z,80.21
2022-12-12T13:24:21.774Z,80.47
2022-12-12T13:27:01.509Z,80.28
2022-12-12T13:29:31.879Z,80.33
2022-12-12T13:32:25.522Z,80.20
2022-12-12T13:34:57.488Z,80.16
2022-12-12T13:37:24.238Z,80.05
2022-12-12T13:40:06.750Z,80.17
2022-12-12T13:42:55.560Z,79.93
2022-12-12T13:45:43.288Z,79.91
2022-12-12T13:48:53.115Z,79.96
2022-12-12T13:51:30.209Z,80.37
2022-12-12T13:54:13.160Z,80.29
2022-12-12T13:56:42.998Z,80.10
2022-12-12T13:59:21.816Z,79.86
2022-12-12T14:01:55.454Z,79.78
2022-12-12T14:04:32.493Z,79.42
2022-12-12T14:07:16.673Z,79.74
2022-12-12T14:12:37.707Z,79.61
2022-12-12T14:15:07.020Z,79.48
2022-12-12T14:17:42.243Z,79.41
2022-12-12T14:20:25.904Z,79.27
2022-12-12T14:22:52.245Z,79.41
2022-12-12T14:25:20.585Z,79.39
2022-12-12T14:27:50.108Z,79.25
2022-12-12T14:30:17.762Z,79.81
2022-12-12T14:33:09.076Z,79.68
2022-12-12T14:35:49.608Z,79.88
2022-12-12T14:38:45.629Z,80.13
2022-12-12T14:41:19.558Z,80.16
2022-12-12T14:44:37.559Z,80.30
2022-12-12T14:46:42.457Z,80.73
2022-12-12T14:49:15.431Z,80.51
2022-12-12T14:51:47.329Z,81.07
2022-12-12T14:54:21.669Z,81.07
2022-12-12T14:56:53.006Z,80.89
2022-12-12T14:59:25.509Z,81.25
2022-12-12T15:02:23.912Z,81.33
2022-12-12T15:04:58.060Z,81.40
2022-12-12T15:07:34.785Z,81.71
2022-12-12T15:10:02.039Z,81.77
2022-12-12T15:12:35.669Z,81.78
2022-12-12T15:15:02.699Z,82.12
2022-12-12T15:17:48.202Z,82.23
2022-12-12T15:20:16.819Z,82.50
2022-12-12T15:22:55.076Z,82.57
2022-12-12T15:25:24.167Z,82.58
2022-12-12T15:27:56.077Z,82.69
2022-12-12T15:30:37.100Z,82.81
2022-12-12T15:33:06.962Z,83.13
2022-12-12T15:35:34.050Z,83.32
2022-12-12T15:38:10.085Z,83.31
2022-12-12T15:40:38.242Z,83.43
2022-12-12T15:43:11.564Z,83.46
2022-12-12T15:45:40.520Z,83.42
2022-12-12T15:48:15.532Z,83.48
2022-12-12T15:50:41.827Z,83.20
2022-12-12T15:53:29.014Z,83.26
2022-12-12T15:56:05.908Z,83.38
2022-12-12T15:58:35.529Z,83.58
2022-12-12T16:01:20.442Z,83.90
2022-12-12T16:04:02.827Z,83.93
2022-12-12T16:06:48.601Z,83.94
2022-12-12T16:09:21.537Z,84.23
2022-12-12T16:11:52.703Z,84.40
2022-12-12T16:14:42.232Z,84.61
2022-12-12T16:17:25.328Z,84.76
2022-12-12T16:20:01.371Z,84.89
2022-12-12T16:22:37.162Z,85.08
2022-12-12T16:25:25.594Z,85.36
2022-12-12T16:27:54.995Z,84.98
2022-12-12T16:30:21.577Z,85.13
2022-12-12T16:32:48.174Z,85.31
2022-12-12T16:35:20.139Z,85.63
2022-12-12T16:37:52.698Z,85.66
2022-12-12T16:40:20.707Z,85.77
2022-12-12T16:42:59.484Z,85.78
2022-12-12T16:45:25.892Z,85.52
2022-12-12T16:47:52.390Z,85.60
2022-12-12T16:50:18.764Z,85.74
2022-12-12T16:52:45.130Z,85.69
2022-12-12T16:55:22.983Z,85.77
2022-12-12T16:57:49.391Z,85.83
2022-12-12T17:00:16.634Z,85.79
2022-12-12T17:02:44.210Z,85.89
2022-12-12T17:05:17.852Z,86.21
2022-12-12T17:07:44.452Z,86.00
2022-12-12T17:10:11.846Z,86.12
2022-12-12T17:12:39.051Z,86.40
2022-12-12T17:15:06.634Z,86.42
2022-12-12T17:17:33.021Z,86.33
2022-12-12T17:19:59.378Z,86.39
2022-12-12T17:22:25.760Z,86.42
2022-12-12T17:24:52.109Z,86.32
2022-12-12T17:27:18.458Z,86.17
2022-12-12T17:29:44.901Z,86.01
2022-12-12T17:32:11.255Z,86.05
2022-12-12T17:34:37.798Z,86.29
2022-12-12T17:37:04.186Z,86.30
2022-12-12T17:39:30.641Z,86.13
2022-12-12T17:41:56.981Z,86.28
2022-12-12T17:44:23.777Z,86.29
2022-12-12T17:46:50.152Z,86.73
2022-12-12T17:49:16.851Z,86.63
2022-12-12T17:51:43.271Z,86.49
2022-12-12T17:54:09.642Z,86.35
2022-12-12T17:56:35.986Z,85.97
2022-12-12T17:59:05.984Z,86.02
2022-12-12T18:01:32.517Z,86.20
2022-12-12T18:04:01.244Z,86.28
2022-12-12T18:06:30.615Z,86.37
2022-12-12T18:08:58.185Z,86.44
2022-12-12T18:11:27.356Z,86.26
2022-12-12T18:13:58.291Z,86.33
2022-12-12T18:16:25.290Z,86.71
2022-12-12T18:18:52.440Z,86.84
2022-12-12T18:24:08.522Z,86.72
2022-12-12T18:26:35.318Z,86.89
2022-12-12T18:29:04.454Z,86.78
2022-12-12T18:31:32.763Z,86.85
2022-12-12T18:33:59.294Z,86.25
2022-12-12T18:36:31.820Z,86.27
2022-12-12T18:39:01.039Z,86.26
2022-12-12T18:41:28.341Z,86.30
2022-12-12T18:43:55.518Z,86.34
2022-12-12T18:46:24.625Z,86.47
2022-12-12T18:48:51.318Z,86.70
2022-12-12T18:51:23.338Z,86.91
2022-12-12T18:53:51.566Z,86.94
2022-12-12T18:56:24.452Z,86.87
2022-12-12T18:58:57.619Z,86.78
2022-12-12T19:01:28.485Z,86.90
2022-12-12T19:03:56.842Z,86.30
2022-12-12T19:06:25.999Z,86.44
2022-12-12T19:08:53.916Z,86.87
2022-12-12T19:11:21.185Z,86.93
2022-12-12T19:13:47.575Z,86.69
2022-12-12T19:16:17.196Z,86.79
2022-12-12T19:18:43.950Z,86.80
2022-12-12T19:21:21.853Z,86.70
2022-12-12T19:23:49.051Z,86.71
2022-12-12T19:26:18.757Z,86.58
2022-12-12T19:28:47.584Z,86.56
2022-12-12T19:31:16.423Z,86.74
2022-12-12T19:33:44.343Z,86.70
2022-12-12T19:36:10.815Z,86.76
2022-12-12T19:38:37.425Z,86.56
2022-12-12T19:41:05.478Z,86.66
2022-12-12T19:43:32.093Z,86.63
2022-12-12T19:46:06.907Z,86.54
2022-12-12T19:48:33.840Z,86.66
2022-12-12T19:51:05.378Z,86.75
2022-12-12T19:53:32.005Z,86.93
2022-12-12T19:55:58.412Z,86.79
2022-12-12T19:58:24.870Z,86.68
2022-12-12T20:00:52.609Z,86.78
2022-12-12T20:03:18.961Z,86.76
2022-12-12T20:05:49.149Z,86.13
2022-12-12T20:08:20.140Z,86.12
2022-12-12T20:10:46.577Z,86.08
2022-12-12T20:13:12.958Z,86.01
2022-12-12T20:15:39.442Z,85.79
2022-12-12T20:18:05.964Z,86.45
2022-12-12T20:20:32.342Z,86.27
2022-12-12T20:22:58.711Z,85.99
2022-12-12T20:25:25.266Z,86.12
2022-12-12T20:27:51.761Z,86.26
2022-12-12T20:30:18.316Z,86.41
2022-12-12T20:32:44.662Z,86.39
2022-12-12T20:35:13.335Z,86.31
2022-12-12T20:37:43.864Z,86.14
2022-12-12T20:40:12.680Z,86.20
2022-12-12T20:42:39.340Z,86.15
2022-12-12T20:45:06.298Z,85.91
2022-12-12T20:47:32.781Z,85.96
2022-12-12T20:50:00.883Z,85.75
2022-12-12T20:52:27.245Z,86.11
2022-12-12T20:54:53.650Z,85.77
2022-12-12T20:57:20.005Z,85.80
2022-12-12T20:59:47.426Z,85.93
2022-12-12T21:02:13.920Z,86.04
2022-12-12T21:04:40.413Z,86.14
2022-12-12T21:07:06.779Z,85.99
2022-12-12T21:09:36.157Z,85.93
2022-12-12T21:12:02.675Z,85.97
2022-12-12T21:14:30.793Z,85.91
2022-12-12T21:16:57.343Z,85.91
2022-12-12T21:19:24.146Z,85.74
2022-12-12T21:21:51.061Z,85.80
2022-12-12T21:24:17.846Z,85.78
2022-12-12T21:26:44.827Z,85.87
2022-12-12T21:29:12.207Z,85.98
2022-12-12T21:31:46.557Z,85.83
2022-12-12T21:34:17.470Z,85.57
2022-12-12T21:36:44.462Z,85.56
2022-12-12T21:39:12.001Z,85.68
2022-12-12T21:41:41.439Z,85.75
2022-12-12T21:44:07.798Z,85.55
2022-12-12T21:46:34.337Z,85.35
2022-12-12T21:49:19.434Z,85.53
2022-12-12T21:51:46.426Z,85.58
2022-12-12T21:54:14.555Z,85.59
2022-12-12T21:56:44.509Z,85.39
2022-12-12T21:59:14.838Z,85.61
2022-12-12T22:01:42.494Z,85.56
2022-12-12T22:04:11.694Z,85.46
2022-12-12T22:06:38.077Z,85.40
2022-12-12T22:09:07.625Z,85.51
2022-12-12T22:11:41.580Z,85.55
2022-12-12T22:14:16.899Z,85.53
2022-12-12T22:16:43.342Z,85.50
2022-12-12T22:19:15.160Z,85.45
2022-12-12T22:21:43.715Z,85.57
2022-12-12T22:24:10.081Z,85.36
2022-12-12T22:26:41.470Z,85.41
2022-12-12T22:29:11.764Z,85.33
2022-12-12T22:31:39.309Z,85.43
2022-12-12T22:34:10.450Z,85.48
2022-12-12T22:36:38.631Z,85.49
2022-12-12T22:39:06.882Z,85.72
2022-12-12T22:41:33.634Z,85.84
2022-12-12T22:44:03.575Z,85.75
2022-12-12T22:46:30.395Z,85.79
2022-12-12T22:48:59.359Z,85.39
2022-12-12T22:51:31.844Z,85.54
2022-12-12T22:54:03.519Z,85.49
2022-12-12T22:56:31.809Z,85.42
2022-12-12T22:58:58.391Z,85.69
2022-12-12T23:01:24.975Z,85.57
2022-12-12T23:03:52.508Z,85.35
2022-12-12T23:06:26.068Z,85.20
2022-12-12T23:08:55.075Z,85.42
2022-12-12T23:11:23.086Z,85.19
2022-12-12T23:13:50.158Z,85.35
2022-12-12T23:16:19.849Z,85.37
2022-12-12T23:18:47.896Z,85.20
2022-12-12T23:21:17.662Z,85.00
2022-12-12T23:23:45.118Z,85.25
2022-12-12T23:26:20.659Z,85.34
2022-12-12T23:28:48.351Z,85.55
2022-12-12T23:31:18.668Z,85.33
2022-12-12T23:33:46.498Z,85.25
2022-12-12T23:36:15.285Z,85.43
2022-12-12T23:38:42.638Z,85.45
2022-12-12T23:41:12.191Z,85.49
2022-12-12T23:43:38.731Z,85.34
2022-12-12T23:46:07.764Z,85.36
2022-12-12T23:48:34.960Z,85.18
2022-12-12T23:51:01.426Z,85.30
2022-12-12T23:53:31.366Z,84.96
2022-12-12T23:56:03.930Z,84.81
2022-12-12T23:58:30.453Z,84.99
